Time;durP1;ratioP1;P1;durP2;ratioP2;P2;SDS_P1;SDS_P2;PMS_P1;PMS_P2;Temp;Humidity;BMP_temperature;BMP_pressure;BME280_temperature;BME280_humidity;BME280_pressure;Samples;Min_cycle;Max_cycle;Signal;HPM_P1;HPM_P2
2023/07/27 00:09:23;;;;;;;7;3.5;;;;;;;12.03;91.75;;;;;
2023/07/27 00:20:23;;;;;;;7;3.5;;;;;;;12.11;91.23;;;;;
2023/07/27 00:31:23;;;;;;;5.9;2.7;;;;;;;12.08;91.35;;;;;
2023/07/27 00:41:23;;;;;;;5.9;2.7;;;;;;;12.04;91.37;;;;;
2023/07/27 00:51:23;;;;;;;6.1;3.7;;;;;;;12.11;91.62;;;;;
2023/07/27 01:01:23;;;;;;;6.1;3.7;;;;;;;12.16;91.59;;;;;
2023/07/27 01:11:23;;;;;;;6.1;3.7;;;;;;;12.17;90.92;;;;;
2023/07/27 01:22:23;;;;;;;5.5;2.6;;;;;;;12.11;90.71;;;;;
2023/07/27 01:32:23;;;;;;;5.5;2.6;;;;;;;12.07;90.51;;;;;
2023/07/27 01:42:23;;;;;;;5.5;2.6;;;;;;;12;90.21;;;;;
2023/07/27 01:52:23;;;;;;;6.4;3.1;;;;;;;11.92;89.98;;;;;
2023/07/27 02:02:23;;;;;;;6.4;3.1;;;;;;;11.74;89.74;;;;;
2023/07/27 02:13:23;;;;;;;6.4;3.1;;;;;;;11.46;90.01;;;;;
2023/07/27 02:23:24;;;;;;;7;3.1;;;;;;;11.29;90.05;;;;;
2023/07/27 02:33:23;;;;;;;7;3.1;;;;;;;11.12;90.3;;;;;
2023/07/27 02:44:23;;;;;;;7;3.1;;;;;;;11.03;90.36;;;;;
2023/07/27 02:54:23;;;;;;;5.8;2.7;;;;;;;10.91;90.78;;;;;
2023/07/27 03:05:23;;;;;;;5.8;2.7;;;;;;;10.79;91.03;;;;;
2023/07/27 03:15:23;;;;;;;5.8;2.7;;;;;;;10.77;90.9;;;;;
2023/07/27 03:26:23;;;;;;;8.6;3.2;;;;;;;10.77;90.93;;;;;
2023/07/27 03:36:24;;;;;;;8.6;3.2;;;;;;;10.82;90.91;;;;;
2023/07/27 03:47:24;;;;;;;8.6;3.2;;;;;;;10.88;90.75;;;;;
2023/07/27 03:58:24;;;;;;;6.4;2.7;;;;;;;11.02;90.84;;;;;
2023/07/27 04:08:24;;;;;;;6.4;2.7;;;;;;;11.13;90.71;;;;;
2023/07/27 04:19:24;;;;;;;6.4;2.7;;;;;;;11.27;90.45;;;;;
2023/07/27 04:29:24;;;;;;;5.5;2.4;;;;;;;11.45;90.34;;;;;
2023/07/27 04:40:24;;;;;;;5.5;2.4;;;;;;;11.73;90.14;;;;;
2023/07/27 04:50:24;;;;;;;5.5;2.4;;;;;;;12.01;89.4;;;;;
2023/07/27 05:01:24;;;;;;;7.1;3.6;;;;;;;12.22;86.82;;;;;
2023/07/27 05:11:24;;;;;;;7.1;3.6;;;;;;;12.65;87.69;;;;;
2023/07/27 05:22:24;;;;;;;9.1;5.5;;;;;;;13.13;85.74;;;;;
2023/07/27 05:32:24;;;;;;;9.1;5.5;;;;;;;13.51;84.97;;;;;
2023/07/27 05:43:24;;;;;;;9.1;5.5;;;;;;;13.65;84.55;;;;;
2023/07/27 05:53:24;;;;;;;11.8;7;;;;;;;13.77;83.97;;;;;
2023/07/27 06:03:24;;;;;;;11.8;7;;;;;;;14.07;82.14;;;;;
2023/07/27 06:13:24;;;;;;;11.8;7;;;;;;;14.23;81.36;;;;;
2023/07/27 06:24:24;;;;;;;9;4;;;;;;;14.34;80.89;;;;;
2023/07/27 06:34:25;;;;;;;9;4;;;;;;;14.74;79.92;;;;;
2023/07/27 06:45:24;;;;;;;9;4;;;;;;;14.99;79.09;;;;;
2023/07/27 06:55:24;;;;;;;6.1;3.6;;;;;;;15.16;77.86;;;;;
2023/07/27 07:05:24;;;;;;;6.1;3.6;;;;;;;15.49;77.1;;;;;
2023/07/27 07:16:24;;;;;;;6.1;3.6;;;;;;;15.74;75.73;;;;;
2023/07/27 07:26:24;;;;;;;7.5;3.4;;;;;;;15.88;74.33;;;;;
2023/07/27 07:37:24;;;;;;;7.5;3.4;;;;;;;16.45;73.67;;;;;
2023/07/27 07:47:24;;;;;;;7.5;3.4;;;;;;;16.8;74.07;;;;;
2023/07/27 07:57:25;;;;;;;5.3;2.9;;;;;;;17.01;71.29;;;;;
2023/07/27 08:08:24;;;;;;;5.3;2.9;;;;;;;17.32;69.05;;;;;
2023/07/27 08:18:25;;;;;;;5.3;2.9;;;;;;;17.14;66.95;;;;;
2023/07/27 08:29:24;;;;;;;4.7;2.2;;;;;;;17.67;66.87;;;;;
2023/07/27 08:39:24;;;;;;;4.7;2.2;;;;;;;18;62.64;;;;;
2023/07/27 08:49:24;;;;;;;4.7;2.2;;;;;;;18.26;65.24;;;;;
2023/07/27 09:00:24;;;;;;;4.2;1.9;;;;;;;18.41;59.78;;;;;
2023/07/27 09:10:24;;;;;;;4.2;1.9;;;;;;;18.62;60.6;;;;;
2023/07/27 09:21:24;;;;;;;4.1;1.7;;;;;;;18.83;56.11;;;;;
2023/07/27 09:32:24;;;;;;;4.1;1.7;;;;;;;19.31;57.06;;;;;
2023/07/27 09:42:24;;;;;;;4.1;1.7;;;;;;;19.47;57.85;;;;;
2023/07/27 09:53:24;;;;;;;4.2;1.7;;;;;;;19.65;55.86;;;;;
2023/07/27 10:04:24;;;;;;;4.2;1.7;;;;;;;19.59;53.88;;;;;
2023/07/27 10:14:24;;;;;;;4.2;1.7;;;;;;;19.87;56.14;;;;;
2023/07/27 10:25:24;;;;;;;4.2;1.5;;;;;;;20.22;54.29;;;;;
2023/07/27 10:35:24;;;;;;;4.2;1.5;;;;;;;20.5;50.61;;;;;
2023/07/27 10:46:24;;;;;;;4.2;1.5;;;;;;;20.75;50.45;;;;;
2023/07/27 10:56:24;;;;;;;4.5;1.8;;;;;;;20.94;52.03;;;;;
2023/07/27 11:07:24;;;;;;;4.5;1.8;;;;;;;20.79;51.51;;;;;
2023/07/27 11:18:24;;;;;;;4.5;1.8;;;;;;;21.23;49.84;;;;;
2023/07/27 11:29:25;;;;;;;3.8;1.8;;;;;;;21.35;48.69;;;;;
2023/07/27 11:40:26;;;;;;;3.8;1.8;;;;;;;21.79;48.51;;;;;
2023/07/27 11:51:25;;;;;;;3.4;1.6;;;;;;;21.46;48.49;;;;;
2023/07/27 12:02:24;;;;;;;3.4;1.6;;;;;;;21.64;48.96;;;;;
2023/07/27 12:12:24;;;;;;;3.4;1.6;;;;;;;21.98;44.15;;;;;
2023/07/27 12:23:25;;;;;;;4.2;1.5;;;;;;;22.21;45.42;;;;;
2023/07/27 12:33:27;;;;;;;4.2;1.5;;;;;;;22.73;44.33;;;;;
2023/07/27 12:44:24;;;;;;;4.2;1.5;;;;;;;23.46;45.39;;;;;
2023/07/27 12:55:25;;;;;;;4.1;1.8;;;;;;;23.85;45.31;;;;;
2023/07/27 13:06:25;;;;;;;4.1;1.8;;;;;;;23.61;45.46;;;;;
2023/07/27 13:17:25;;;;;;;4.1;1.8;;;;;;;23.6;42.63;;;;;
2023/07/27 13:28:25;;;;;;;3.2;1.6;;;;;;;23.15;42.72;;;;;
2023/07/27 13:38:25;;;;;;;3.2;1.6;;;;;;;23.78;42.73;;;;;
2023/07/27 13:48:25;;;;;;;3.2;1.6;;;;;;;23.45;42.37;;;;;
2023/07/27 13:59:25;;;;;;;4.2;1.9;;;;;;;24.02;43.56;;;;;
2023/07/27 14:10:25;;;;;;;4.2;1.9;;;;;;;25.29;40.79;;;;;
2023/07/27 14:21:25;;;;;;;4.7;1.6;;;;;;;24.67;41.47;;;;;
2023/07/27 14:32:26;;;;;;;4.7;1.6;;;;;;;23.99;41.4;;;;;
2023/07/27 14:43:25;;;;;;;4.7;1.6;;;;;;;23.79;42.63;;;;;
2023/07/27 14:53:25;;;;;;;4.2;1.8;;;;;;;23.23;43.02;;;;;
2023/07/27 15:04:25;;;;;;;4.2;1.8;;;;;;;23.68;44.18;;;;;
2023/07/27 15:14:25;;;;;;;4.2;1.8;;;;;;;25.46;38.99;;;;;
2023/07/27 15:25:25;;;;;;;4.8;1.6;;;;;;;27.97;34.67;;;;;
2023/07/27 15:35:25;;;;;;;4.8;1.6;;;;;;;29.6;33.02;;;;;
2023/07/27 15:46:25;;;;;;;4.8;1.6;;;;;;;31.72;31.07;;;;;
2023/07/27 15:56:25;;;;;;;3.8;1.6;;;;;;;30.5;30.99;;;;;
2023/07/27 16:07:25;;;;;;;3.8;1.6;;;;;;;31.51;31.83;;;;;
2023/07/27 16:17:26;;;;;;;3.8;1.6;;;;;;;29.05;33.77;;;;;
2023/07/27 16:27:25;;;;;;;2.4;1.1;;;;;;;27.91;34.51;;;;;
2023/07/27 16:38:25;;;;;;;2.4;1.1;;;;;;;26.45;38.64;;;;;
2023/07/27 16:49:25;;;;;;;2.4;1.1;;;;;;;25.03;40.12;;;;;
2023/07/27 17:00:25;;;;;;;3.3;1.4;;;;;;;23.98;42.39;;;;;
2023/07/27 17:11:25;;;;;;;3.3;1.4;;;;;;;24.61;42.73;;;;;
2023/07/27 17:21:25;;;;;;;3.3;1.4;;;;;;;23.82;45.42;;;;;
2023/07/27 17:32:25;;;;;;;3.2;1.6;;;;;;;23.11;46.33;;;;;
2023/07/27 17:42:25;;;;;;;3.2;1.6;;;;;;;21.83;51.47;;;;;
2023/07/27 17:53:25;;;;;;;4;2.2;;;;;;;20.98;53.6;;;;;
2023/07/27 18:04:25;;;;;;;4;2.2;;;;;;;20.2;53.9;;;;;
2023/07/27 18:15:25;;;;;;;4;2.2;;;;;;;19.21;57.32;;;;;
2023/07/27 18:25:25;;;;;;;5.9;2.4;;;;;;;18.41;61.02;;;;;
2023/07/27 18:35:25;;;;;;;5.9;2.4;;;;;;;17.64;64.49;;;;;
2023/07/27 18:45:25;;;;;;;5.9;2.4;;;;;;;17.38;64.34;;;;;
2023/07/27 18:55:25;;;;;;;6.2;3.9;;;;;;;17.15;65;;;;;
2023/07/27 19:06:25;;;;;;;6.2;3.9;;;;;;;17;66.47;;;;;
2023/07/27 19:17:25;;;;;;;6.2;3.9;;;;;;;16.84;67.72;;;;;
2023/07/27 19:27:25;;;;;;;5.7;2.9;;;;;;;16.93;66.21;;;;;
2023/07/27 19:38:25;;;;;;;5.7;2.9;;;;;;;16.88;66.58;;;;;
2023/07/27 19:48:25;;;;;;;5.7;2.9;;;;;;;16.85;65.28;;;;;
2023/07/27 19:58:25;;;;;;;4.9;2.6;;;;;;;16.8;64.9;;;;;
2023/07/27 20:08:25;;;;;;;4.9;2.6;;;;;;;16.59;66.62;;;;;
2023/07/27 20:19:25;;;;;;;4.9;2.6;;;;;;;16.34;67.37;;;;;
2023/07/27 20:29:26;;;;;;;5.5;3.1;;;;;;;16.18;67.8;;;;;
2023/07/27 20:40:25;;;;;;;5.5;3.1;;;;;;;16.21;67.05;;;;;
2023/07/27 20:50:25;;;;;;;5.5;3.1;;;;;;;16.21;66.8;;;;;
2023/07/27 21:01:27;;;;;;;5.2;2.8;;;;;;;16.49;65.07;;;;;
2023/07/27 21:11:25;;;;;;;5.2;2.8;;;;;;;16.64;63.88;;;;;
2023/07/27 21:22:25;;;;;;;5.2;2.8;;;;;;;16.73;63.79;;;;;
2023/07/27 21:32:25;;;;;;;5.2;2.8;;;;;;;16.73;63.56;;;;;
2023/07/27 21:43:25;;;;;;;5.2;2.8;;;;;;;16.68;62.21;;;;;
2023/07/27 21:53:25;;;;;;;4.6;2.8;;;;;;;16.7;61.37;;;;;
2023/07/27 22:04:25;;;;;;;4.6;2.8;;;;;;;16.74;61.92;;;;;
2023/07/27 22:15:25;;;;;;;4.6;2.8;;;;;;;16.8;60.68;;;;;
2023/07/27 22:25:25;;;;;;;4.5;2.4;;;;;;;16.79;59.79;;;;;
2023/07/27 22:35:25;;;;;;;4.5;2.4;;;;;;;16.86;60.07;;;;;
2023/07/27 22:46:25;;;;;;;4.5;2.4;;;;;;;16.87;60.09;;;;;
2023/07/27 22:57:25;;;;;;;4.7;2;;;;;;;16.86;59.34;;;;;
2023/07/27 23:08:25;;;;;;;4.7;2;;;;;;;16.82;59.5;;;;;
2023/07/27 23:18:25;;;;;;;4.7;2;;;;;;;16.82;59.76;;;;;
2023/07/27 23:28:25;;;;;;;4.1;2.4;;;;;;;16.77;59.62;;;;;
2023/07/27 23:39:25;;;;;;;4.1;2.4;;;;;;;16.55;59.08;;;;;
2023/07/27 23:50:25;;;;;;;4.1;2.4;;;;;;;16.48;59.4;;;;;
